createdAt,value
2019-02-22T00:02:19.668Z,19.83
2019-02-22T00:04:50.574Z,20.53
2019-02-22T00:07:21.584Z,20.43
2019-02-22T00:09:52.652Z,20.37
2019-02-22T00:12:24.085Z,20.43
2019-02-22T00:14:55.080Z,20.53
2019-02-22T00:17:26.030Z,20.83
2019-02-22T00:19:57.025Z,19.60
2019-02-22T00:22:27.985Z,21.50
2019-02-22T00:24:59.071Z,22.00
2019-02-22T00:27:30.068Z,19.43
2019-02-22T00:30:01.028Z,21.23
2019-02-22T00:32:32.018Z,42.93
2019-02-22T00:35:03.126Z,20.37
2019-02-22T00:37:34.150Z,21.17
2019-02-22T00:40:06.155Z,20.80
2019-02-22T00:42:37.206Z,20.47
2019-02-22T00:45:08.216Z,20.00
2019-02-22T00:47:39.198Z,20.53
2019-02-22T00:50:10.252Z,21.33
2019-02-22T00:52:41.138Z,20.97
2019-02-22T00:55:12.026Z,21.63
2019-02-22T00:57:42.987Z,20.80
2019-02-22T01:00:14.122Z,21.73
2019-02-22T01:02:45.092Z,22.40
2019-02-22T01:05:16.136Z,21.97
2019-02-22T01:07:47.293Z,21.63
2019-02-22T01:10:18.212Z,22.53
2019-02-22T01:12:49.192Z,22.70
2019-02-22T01:15:20.230Z,23.00
2019-02-22T01:17:51.104Z,23.13
2019-02-22T01:20:22.132Z,23.23
2019-02-22T01:22:53.094Z,22.43
2019-02-22T01:25:24.255Z,22.87
2019-02-22T01:27:55.162Z,22.77
2019-02-22T01:30:26.034Z,22.90
2019-02-22T01:32:56.934Z,23.60
2019-02-22T01:35:27.944Z,24.03
2019-02-22T01:37:58.948Z,22.47
2019-02-22T01:40:29.988Z,23.57
2019-02-22T01:43:00.967Z,23.73
2019-02-22T01:45:31.875Z,23.83
2019-02-22T01:48:02.742Z,23.70
2019-02-22T01:50:33.688Z,25.53
2019-02-22T01:53:04.661Z,24.90
2019-02-22T01:55:36.045Z,24.53
2019-02-22T01:58:06.907Z,25.10
2019-02-22T02:00:38.159Z,24.90
2019-02-22T02:03:09.041Z,24.67
2019-02-22T02:05:39.987Z,25.00
2019-02-22T02:08:11.113Z,25.57
2019-02-22T02:10:42.463Z,25.00
2019-02-22T02:13:13.403Z,24.93
2019-02-22T02:15:44.447Z,26.73
2019-02-22T02:18:15.487Z,27.10
2019-02-22T02:20:46.728Z,28.20
2019-02-22T02:23:17.787Z,29.00
2019-02-22T02:25:48.869Z,28.10
2019-02-22T02:28:19.882Z,28.80
2019-02-22T02:30:50.838Z,29.10
2019-02-22T02:33:21.810Z,28.83
2019-02-22T02:35:52.859Z,27.80
2019-02-22T02:38:23.831Z,28.33
2019-02-22T02:41:06.858Z,28.43
2019-02-22T02:43:27.433Z,29.27
2019-02-22T02:45:58.302Z,28.93
2019-02-22T02:48:29.309Z,32.10
2019-02-22T02:51:00.262Z,30.47
2019-02-22T02:53:31.280Z,30.37
2019-02-22T02:56:02.258Z,30.90
2019-02-22T02:58:33.284Z,31.10
2019-02-22T03:01:04.255Z,31.13
2019-02-22T03:03:35.208Z,33.80
2019-02-22T03:06:16.775Z,33.73
2019-02-22T03:08:47.800Z,35.83
2019-02-22T03:11:21.108Z,39.87
2019-02-22T03:13:51.296Z,39.27
2019-02-22T03:16:22.208Z,39.03
2019-02-22T03:18:53.266Z,39.30
2019-02-22T03:21:24.221Z,38.50
2019-02-22T03:23:55.090Z,37.27
2019-02-22T03:26:26.032Z,38.40
2019-02-22T03:28:56.932Z,39.00
2019-02-22T03:31:28.001Z,36.37
2019-02-22T03:33:58.914Z,37.33
2019-02-22T03:36:29.904Z,35.80
2019-02-22T03:39:00.869Z,35.87
2019-02-22T03:41:33.458Z,36.37
2019-02-22T03:44:04.680Z,35.23
2019-02-22T03:46:35.649Z,35.30
2019-02-22T03:49:06.571Z,34.60
2019-02-22T03:51:37.646Z,36.13
2019-02-22T03:54:08.584Z,34.27
2019-02-22T03:56:40.036Z,35.23
2019-02-22T03:59:11.061Z,32.97
2019-02-22T04:01:42.089Z,33.60
2019-02-22T04:04:13.393Z,33.03
2019-02-22T04:06:44.463Z,33.10
2019-02-22T04:09:15.357Z,31.73
2019-02-22T04:11:46.597Z,32.33
2019-02-22T04:14:17.635Z,33.27
2019-02-22T04:16:48.588Z,32.90
2019-02-22T04:19:19.624Z,31.40
2019-02-22T04:21:50.716Z,31.23
2019-02-22T04:24:21.725Z,30.47
2019-02-22T04:26:52.680Z,31.40
2019-02-22T04:29:23.662Z,31.67
2019-02-22T04:31:54.644Z,32.33
2019-02-22T04:34:25.514Z,32.77
2019-02-22T04:36:56.392Z,31.67
2019-02-22T04:39:27.292Z,32.07
2019-02-22T04:41:58.521Z,31.70
2019-02-22T04:44:29.456Z,31.80
2019-02-22T04:47:00.442Z,31.87
2019-02-22T04:49:31.327Z,31.23
2019-02-22T04:52:02.224Z,31.47
2019-02-22T04:54:33.145Z,31.10
2019-02-22T04:57:04.204Z,33.23
2019-02-22T04:59:35.230Z,31.57
2019-02-22T05:02:06.431Z,32.50
2019-02-22T05:04:37.453Z,33.23
2019-02-22T05:07:08.493Z,31.73
2019-02-22T05:09:39.511Z,32.50
2019-02-22T05:12:11.342Z,32.03
2019-02-22T05:14:42.469Z,32.07
2019-02-22T05:17:13.402Z,31.63
2019-02-22T05:19:44.287Z,31.53
2019-02-22T05:22:18.263Z,33.20
2019-02-22T05:24:48.624Z,29.83
2019-02-22T05:27:21.277Z,32.00
2019-02-22T05:29:52.265Z,30.87
2019-02-22T05:32:23.333Z,29.27
2019-02-22T05:34:54.304Z,31.00
2019-02-22T05:37:25.245Z,31.20
2019-02-22T05:39:56.375Z,29.77
2019-02-22T05:42:28.691Z,30.83
2019-02-22T05:44:59.724Z,30.00
2019-02-22T05:47:30.919Z,29.27
2019-02-22T05:50:01.926Z,30.37
2019-02-22T05:52:33.255Z,32.73
2019-02-22T05:57:40.227Z,30.50
2019-02-22T06:00:11.372Z,29.53
2019-02-22T06:02:42.350Z,28.40
2019-02-22T06:05:13.327Z,29.90
2019-02-22T06:07:44.294Z,28.60
2019-02-22T06:10:15.363Z,28.07
2019-02-22T06:12:46.471Z,29.47
2019-02-22T06:15:17.497Z,30.57
2019-02-22T06:17:48.501Z,28.80
2019-02-22T06:20:19.540Z,28.93
2019-02-22T06:22:50.474Z,28.83
2019-02-22T06:25:21.462Z,28.57
2019-02-22T06:27:52.360Z,28.23
2019-02-22T06:30:23.438Z,28.80
2019-02-22T06:32:54.411Z,27.77
2019-02-22T06:35:25.291Z,28.23
2019-02-22T06:37:56.272Z,27.73
2019-02-22T06:40:27.210Z,28.50
2019-02-22T06:42:58.249Z,26.47
2019-02-22T06:45:29.196Z,25.97
2019-02-22T06:48:00.169Z,26.83
2019-02-22T06:50:34.038Z,26.03
2019-02-22T06:53:04.099Z,26.27
2019-02-22T06:55:35.051Z,25.93
2019-02-22T06:58:06.001Z,26.93
2019-02-22T07:00:36.943Z,26.13
2019-02-22T07:03:07.913Z,25.60
2019-02-22T07:05:38.949Z,24.73
2019-02-22T07:08:09.995Z,25.13
2019-02-22T07:10:57.441Z,23.83
2019-02-22T07:13:28.449Z,24.33
2019-02-22T07:15:59.467Z,24.50
2019-02-22T07:18:30.492Z,25.37
2019-02-22T07:21:01.444Z,24.60
2019-02-22T07:23:32.338Z,25.13
2019-02-22T07:26:03.297Z,25.00
2019-02-22T07:28:34.267Z,25.10
2019-02-22T07:31:05.311Z,25.83
2019-02-22T07:33:36.244Z,25.37
2019-02-22T07:36:07.327Z,25.67
2019-02-22T07:38:38.297Z,26.70
2019-02-22T07:41:09.770Z,25.23
2019-02-22T07:43:40.849Z,26.40
2019-02-22T07:46:11.823Z,26.30
2019-02-22T07:48:42.778Z,25.63
2019-02-22T07:51:13.683Z,25.93
2019-02-22T07:53:44.581Z,25.27
2019-02-22T07:56:15.456Z,25.87
2019-02-22T07:58:46.506Z,26.00
2019-02-22T08:01:17.521Z,25.47
2019-02-22T08:03:48.473Z,26.17
2019-02-22T08:06:19.563Z,24.13
2019-02-22T08:08:50.581Z,23.83
2019-02-22T08:11:21.582Z,24.60
2019-02-22T08:13:52.548Z,24.17
2019-02-22T08:16:23.487Z,22.30
2019-02-22T08:19:01.469Z,21.57
2019-02-22T08:21:27.338Z,23.40
2019-02-22T08:23:58.555Z,24.83
2019-02-22T08:26:29.582Z,33.23
2019-02-22T08:29:00.675Z,38.63
2019-02-22T08:31:31.564Z,23.63
2019-02-22T08:34:02.546Z,26.13
2019-02-22T08:36:33.539Z,27.90
2019-02-22T08:39:04.880Z,22.40
2019-02-22T08:41:35.928Z,19.23
2019-02-22T08:44:06.896Z,19.73
2019-02-22T08:46:37.861Z,19.17
2019-02-22T08:49:08.743Z,21.80
2019-02-22T08:51:39.888Z,16.40
2019-02-22T08:54:10.784Z,16.30
2019-02-22T08:56:41.798Z,16.07
2019-02-22T08:59:12.787Z,14.10
2019-02-22T09:01:43.670Z,14.93
2019-02-22T09:04:14.626Z,13.97
2019-02-22T09:06:45.592Z,13.97
2019-02-22T09:09:16.591Z,14.07
2019-02-22T09:11:47.722Z,13.50
2019-02-22T09:14:18.786Z,13.00
2019-02-22T09:16:49.834Z,13.23
2019-02-22T09:19:20.775Z,13.73
2019-02-22T09:21:51.819Z,13.03
2019-02-22T09:24:22.804Z,12.87
2019-02-22T09:26:54.205Z,12.00
2019-02-22T09:29:25.371Z,11.47
2019-02-22T09:31:56.316Z,11.03
2019-02-22T09:34:27.292Z,11.37
2019-02-22T09:36:59.007Z,11.43
2019-02-22T09:39:29.994Z,10.17
2019-02-22T09:42:01.037Z,11.13
2019-02-22T09:44:31.977Z,10.00
2019-02-22T09:47:02.934Z,10.57
2019-02-22T09:49:33.924Z,9.27
2019-02-22T09:52:04.956Z,9.17
2019-02-22T09:54:35.935Z,10.30
2019-02-22T09:57:07.488Z,10.10
2019-02-22T09:59:38.504Z,8.43
2019-02-22T10:02:09.479Z,7.87
2019-02-22T10:04:40.488Z,7.73
2019-02-22T10:07:11.546Z,7.40
2019-02-22T10:09:42.401Z,8.07
2019-02-22T10:12:13.379Z,7.60
2019-02-22T10:14:44.356Z,6.93
2019-02-22T10:17:15.445Z,6.90
2019-02-22T10:19:46.374Z,6.07
2019-02-22T10:22:17.382Z,6.23
2019-02-22T10:24:48.331Z,5.87
2019-02-22T10:27:19.343Z,5.90
2019-02-22T10:29:50.409Z,7.00
2019-02-22T10:32:21.325Z,5.83
2019-02-22T10:34:52.308Z,6.50
2019-02-22T10:37:23.351Z,6.10
2019-02-22T10:39:54.396Z,6.10
2019-02-22T10:42:25.387Z,7.17
2019-02-22T10:44:56.426Z,7.13
2019-02-22T10:47:27.455Z,8.20
2019-02-22T10:49:58.544Z,6.40
2019-02-22T10:52:29.552Z,5.83
2019-02-22T10:55:00.697Z,5.87
2019-02-22T10:57:31.795Z,5.77
2019-02-22T11:00:02.911Z,5.70
2019-02-22T11:02:34.010Z,5.63
2019-02-22T11:05:05.126Z,5.67
2019-02-22T11:07:37.262Z,5.80
2019-02-22T11:10:13.111Z,6.17
2019-02-22T11:12:44.238Z,5.63
2019-02-22T11:15:15.629Z,5.27
2019-02-22T11:17:46.634Z,5.43
2019-02-22T11:20:17.559Z,5.07
2019-02-22T11:22:48.604Z,5.07
2019-02-22T11:25:19.543Z,5.30
2019-02-22T11:27:50.631Z,6.27
2019-02-22T11:30:21.676Z,5.07
2019-02-22T11:32:52.640Z,5.00
2019-02-22T11:35:23.695Z,5.57
2019-02-22T11:37:54.895Z,4.90
2019-02-22T11:40:25.821Z,4.53
2019-02-22T11:42:56.884Z,5.00
2019-02-22T11:45:28.073Z,4.80
2019-02-22T11:48:08.651Z,4.93
2019-02-22T11:50:31.729Z,4.57
2019-02-22T11:53:02.617Z,4.50
2019-02-22T11:55:33.823Z,4.80
2019-02-22T11:58:04.818Z,4.53
2019-02-22T12:00:35.763Z,4.67
2019-02-22T12:03:21.140Z,4.57
2019-02-22T12:05:39.458Z,4.67
2019-02-22T12:08:10.422Z,3.93
2019-02-22T12:10:41.514Z,4.77
2019-02-22T12:13:12.460Z,4.23
2019-02-22T12:15:43.562Z,3.80
2019-02-22T12:18:14.463Z,3.80
2019-02-22T12:20:45.616Z,4.43
2019-02-22T12:23:16.635Z,3.63
2019-02-22T12:25:47.660Z,4.70
2019-02-22T12:28:18.760Z,4.73
2019-02-22T12:30:49.865Z,4.37
2019-02-22T12:33:21.126Z,4.63
2019-02-22T12:35:52.118Z,3.37
2019-02-22T12:38:23.437Z,3.43
2019-02-22T12:40:54.458Z,3.40
2019-02-22T12:43:25.434Z,3.57
2019-02-22T12:45:56.452Z,3.50
2019-02-22T12:48:27.606Z,3.73
2019-02-22T12:50:58.766Z,3.77
2019-02-22T12:53:29.801Z,4.53
2019-02-22T12:56:00.644Z,3.73
2019-02-22T12:58:31.669Z,3.53
2019-02-22T13:01:02.712Z,4.17
2019-02-22T13:03:33.689Z,3.70
2019-02-22T13:06:04.704Z,4.00
2019-02-22T13:08:35.872Z,4.23
2019-02-22T13:11:07.007Z,3.80
2019-02-22T13:13:38.029Z,3.60
2019-02-22T13:16:09.012Z,4.13
2019-02-22T13:18:39.902Z,4.63
2019-02-22T13:21:10.846Z,4.67
2019-02-22T13:23:41.750Z,4.07
2019-02-22T13:26:12.661Z,3.93
2019-02-22T13:28:43.709Z,5.27
2019-02-22T13:31:14.694Z,3.63
2019-02-22T13:33:45.683Z,4.03
2019-02-22T13:36:16.712Z,3.40
2019-02-22T13:38:47.629Z,3.70
2019-02-22T13:41:18.601Z,3.03
2019-02-22T13:43:49.637Z,2.73
2019-02-22T13:46:20.810Z,2.83
2019-02-22T13:48:51.829Z,2.87
2019-02-22T13:51:22.907Z,3.03
2019-02-22T13:53:53.842Z,2.70
2019-02-22T13:56:29.547Z,2.60
2019-02-22T13:58:57.486Z,2.60
2019-02-22T14:01:28.367Z,2.90
2019-02-22T14:03:59.430Z,3.00
2019-02-22T14:06:30.391Z,2.77
2019-02-22T14:09:01.647Z,2.50
2019-02-22T14:11:32.490Z,1.93
2019-02-22T14:14:03.384Z,2.30
2019-02-22T14:16:35.936Z,2.47
2019-02-22T14:19:06.959Z,2.30
2019-02-22T14:21:37.910Z,2.43
2019-02-22T14:24:09.814Z,2.30
2019-02-22T14:26:40.755Z,2.33
2019-02-22T14:29:11.706Z,2.40
2019-02-22T14:31:42.741Z,2.33
2019-02-22T14:34:13.618Z,2.67
2019-02-22T14:36:45.135Z,2.57
2019-02-22T14:39:16.172Z,2.50
2019-02-22T14:41:47.106Z,3.03
2019-02-22T14:44:18.155Z,3.07
2019-02-22T14:46:49.289Z,2.70
2019-02-22T14:49:20.150Z,2.63
2019-02-22T14:51:51.080Z,3.13
2019-02-22T14:54:22.201Z,2.90
2019-02-22T14:56:53.181Z,2.73
2019-02-22T14:59:24.182Z,3.00
2019-02-22T15:01:55.125Z,3.77
2019-02-22T15:04:26.090Z,3.30
2019-02-22T15:06:57.128Z,3.13
2019-02-22T15:09:28.151Z,3.40
2019-02-22T15:11:59.171Z,2.63
2019-02-22T15:14:30.138Z,2.90
2019-02-22T15:17:02.973Z,2.67
2019-02-22T15:19:34.001Z,2.90
2019-02-22T15:22:05.004Z,2.83
2019-02-22T15:24:36.001Z,2.73
2019-02-22T15:27:06.974Z,3.23
2019-02-22T15:29:37.881Z,3.20
2019-02-22T15:32:08.941Z,3.30
2019-02-22T15:34:39.774Z,3.27
2019-02-22T15:37:10.742Z,3.20
2019-02-22T15:39:41.751Z,3.43
2019-02-22T15:42:12.948Z,2.50
2019-02-22T15:44:44.253Z,3.00
2019-02-22T15:47:15.193Z,2.53
2019-02-22T15:49:48.499Z,2.63
2019-02-22T15:52:18.717Z,2.90
2019-02-22T15:54:49.681Z,2.63
2019-02-22T15:57:20.803Z,2.90
2019-02-22T15:59:51.782Z,2.63
2019-02-22T16:02:22.685Z,2.50
2019-02-22T16:04:55.382Z,2.60
2019-02-22T16:07:26.365Z,3.00
2019-02-22T16:09:57.306Z,2.73
2019-02-22T16:12:28.333Z,2.50
2019-02-22T16:14:59.237Z,2.80
2019-02-22T16:17:30.333Z,3.30
2019-02-22T16:20:01.499Z,2.80
2019-02-22T16:22:32.461Z,3.10
2019-02-22T16:25:03.451Z,3.00
2019-02-22T16:27:34.314Z,3.47
2019-02-22T16:30:11.603Z,3.40
2019-02-22T16:32:42.535Z,3.37
2019-02-22T16:35:14.040Z,2.40
2019-02-22T16:37:45.032Z,2.10
2019-02-22T16:40:16.126Z,2.27
2019-02-22T16:42:47.203Z,3.03
2019-02-22T16:45:18.297Z,2.30
2019-02-22T16:47:49.474Z,2.70
2019-02-22T16:50:20.435Z,2.63
2019-02-22T16:52:51.378Z,2.07
2019-02-22T16:55:22.491Z,2.20
2019-02-22T16:57:53.560Z,2.27
2019-02-22T17:00:24.423Z,2.80
2019-02-22T17:02:55.473Z,2.80
2019-02-22T17:05:26.314Z,3.00
2019-02-22T17:07:57.294Z,3.00
2019-02-22T17:10:28.316Z,3.07
2019-02-22T17:12:59.257Z,3.10
2019-02-22T17:15:30.289Z,3.10
2019-02-22T17:18:01.407Z,3.47
2019-02-22T17:20:32.384Z,3.23
2019-02-22T17:23:03.370Z,3.40
2019-02-22T17:25:34.390Z,3.80
2019-02-22T17:28:05.437Z,3.80
2019-02-22T17:30:36.461Z,3.10
2019-02-22T17:33:07.536Z,3.90
2019-02-22T17:35:38.400Z,5.63
2019-02-22T17:38:09.298Z,3.70
2019-02-22T17:40:40.192Z,5.13
2019-02-22T17:43:11.151Z,3.73
2019-02-22T17:45:42.173Z,3.73
2019-02-22T17:48:13.038Z,3.40
2019-02-22T17:50:44.002Z,3.10
2019-02-22T17:53:15.017Z,2.57
2019-02-22T17:55:45.934Z,2.70
2019-02-22T17:58:24.090Z,2.77
2019-02-22T18:00:49.857Z,2.83
2019-02-22T18:03:20.797Z,2.90
2019-02-22T18:05:51.799Z,3.47
2019-02-22T18:08:22.757Z,2.93
2019-02-22T18:10:59.211Z,2.77
2019-02-22T18:13:30.258Z,2.77
2019-02-22T18:16:01.287Z,2.80
2019-02-22T18:18:32.218Z,3.70
2019-02-22T18:21:03.356Z,3.50
2019-02-22T18:23:34.399Z,3.10
2019-02-22T18:26:05.450Z,3.43
2019-02-22T18:28:36.499Z,2.73
2019-02-22T18:31:07.372Z,3.37
2019-02-22T18:33:38.243Z,3.60
2019-02-22T18:36:09.160Z,4.20
2019-02-22T18:38:40.186Z,4.10
2019-02-22T18:41:11.090Z,4.13
2019-02-22T18:43:42.127Z,4.20
2019-02-22T18:46:13.141Z,5.10
2019-02-22T18:48:44.095Z,4.40
2019-02-22T18:51:14.946Z,4.47
2019-02-22T18:53:46.016Z,4.90
2019-02-22T18:56:17.282Z,4.70
2019-02-22T18:58:48.326Z,5.10
2019-02-22T19:01:19.244Z,5.10
2019-02-22T19:03:50.364Z,5.33
2019-02-22T19:06:21.251Z,5.00
2019-02-22T19:08:52.318Z,5.03
2019-02-22T19:11:23.216Z,5.50
2019-02-22T19:13:54.179Z,5.13
2019-02-22T19:16:25.067Z,4.93
2019-02-22T19:18:56.064Z,5.53
2019-02-22T19:21:26.969Z,5.20
2019-02-22T19:23:57.930Z,5.60
2019-02-22T19:26:28.999Z,5.03
2019-02-22T19:28:59.881Z,5.80
2019-02-22T19:31:30.814Z,5.87
2019-02-22T19:34:01.778Z,5.83
2019-02-22T19:36:32.914Z,5.33
2019-02-22T19:39:04.461Z,6.37
2019-02-22T19:41:35.522Z,6.10
2019-02-22T19:44:06.440Z,6.27
2019-02-22T19:46:37.475Z,6.67
2019-02-22T19:49:08.344Z,6.53
2019-02-22T19:51:39.402Z,6.27
2019-02-22T19:54:10.415Z,6.27
2019-02-22T19:56:41.398Z,6.30
2019-02-22T19:59:12.376Z,6.27
2019-02-22T20:01:43.372Z,7.20
2019-02-22T20:04:14.411Z,6.93
2019-02-22T20:06:45.449Z,6.70
2019-02-22T20:09:16.445Z,6.43
2019-02-22T20:11:48.701Z,6.63
2019-02-22T20:14:19.779Z,6.23
2019-02-22T20:16:50.789Z,6.33
2019-02-22T20:19:21.835Z,6.73
2019-02-22T20:21:52.697Z,6.30
2019-02-22T20:24:23.681Z,6.43
2019-02-22T20:26:54.706Z,6.30
2019-02-22T20:29:25.609Z,6.20
2019-02-22T20:31:56.553Z,6.17
2019-02-22T20:34:27.668Z,6.40
2019-02-22T20:36:58.532Z,6.43
2019-02-22T20:39:29.577Z,6.60
2019-02-22T20:42:00.539Z,6.33
2019-02-22T20:44:31.599Z,6.43
2019-02-22T20:47:02.600Z,6.13
2019-02-22T20:49:33.871Z,5.97
2019-02-22T20:52:04.820Z,5.27
2019-02-22T20:54:35.689Z,5.73
2019-02-22T20:57:06.653Z,6.00
2019-02-22T20:59:37.568Z,6.73
2019-02-22T21:02:08.586Z,5.87
2019-02-22T21:04:39.606Z,6.07
2019-02-22T21:07:10.744Z,6.70
2019-02-22T21:09:41.810Z,6.50
2019-02-22T21:12:12.972Z,6.23
2019-02-22T21:14:43.843Z,6.00
2019-02-22T21:17:14.827Z,6.17
2019-02-22T21:19:45.677Z,6.17
2019-02-22T21:22:16.915Z,6.47
2019-02-22T21:24:48.120Z,6.00
2019-02-22T21:27:18.980Z,5.77
2019-02-22T21:29:50.005Z,6.10
2019-02-22T21:32:20.896Z,6.30
2019-02-22T21:34:51.861Z,6.23
2019-02-22T21:37:23.309Z,6.67
2019-02-22T21:39:54.297Z,6.40
2019-02-22T21:42:25.153Z,7.30
2019-02-22T21:44:56.136Z,7.40
2019-02-22T21:47:27.144Z,7.30
2019-02-22T21:49:58.105Z,7.30
2019-02-22T21:52:29.237Z,6.63
2019-02-22T21:55:00.321Z,7.60
2019-02-22T21:57:31.249Z,7.57
2019-02-22T22:00:02.211Z,7.23
2019-02-22T22:02:33.296Z,7.97
2019-02-22T22:05:04.433Z,7.47
2019-02-22T22:07:35.272Z,7.83
2019-02-22T22:10:08.163Z,8.27
2019-02-22T22:12:39.212Z,8.60
2019-02-22T22:15:16.226Z,8.70
2019-02-22T22:17:47.179Z,25.90
2019-02-22T22:20:18.146Z,12.47
2019-02-22T22:22:49.229Z,10.43
2019-02-22T22:25:20.304Z,9.00
2019-02-22T22:27:51.424Z,8.47
2019-02-22T22:30:22.446Z,8.97
2019-02-22T22:32:53.520Z,9.60
2019-02-22T22:35:24.562Z,10.60
2019-02-22T22:37:55.512Z,21.10
2019-02-22T22:40:26.590Z,14.00
2019-02-22T22:42:57.571Z,11.93
2019-02-22T22:45:28.605Z,10.57
2019-02-22T22:47:59.465Z,16.00
2019-02-22T22:50:30.375Z,9.70
2019-02-22T22:53:02.056Z,13.87
2019-02-22T22:55:33.020Z,10.83
2019-02-22T22:58:03.989Z,10.27
2019-02-22T23:00:45.863Z,10.40
2019-02-22T23:03:17.190Z,10.60
2019-02-22T23:05:48.267Z,10.30
2019-02-22T23:08:20.976Z,25.60
2019-02-22T23:10:52.018Z,18.03
2019-02-22T23:13:23.107Z,15.17
2019-02-22T23:15:54.139Z,11.07
2019-02-22T23:18:25.191Z,12.60
2019-02-22T23:20:56.106Z,12.87
2019-02-22T23:23:27.146Z,12.90
2019-02-22T23:25:58.092Z,12.07
2019-02-22T23:28:28.987Z,16.27
2019-02-22T23:30:59.950Z,12.03
2019-02-22T23:33:30.944Z,13.13
2019-02-22T23:36:01.896Z,12.47
2019-02-22T23:38:32.830Z,12.47
2019-02-22T23:41:03.714Z,13.93
2019-02-22T23:43:34.839Z,13.20
2019-02-22T23:46:05.782Z,11.83
2019-02-22T23:48:36.713Z,12.70
2019-02-22T23:51:07.756Z,12.73
2019-02-22T23:53:38.743Z,11.40
2019-02-22T23:56:09.807Z,18.03
2019-02-22T23:58:40.781Z,10.87
